PWSweather.com
Personal Weather Stations
Station Observations
WODONGA
Wodonga, WodongaAU 3690

WodongaWodongaAU 3690

Lat: -36.121, Lon: 146.87

Elevation: 541

Station Type: Weather Station

http://www.wodongaweather.net

Latest ConditionsUpdated 3:10:02 AM GMT+10:10 Thursday, Jul 28, 2016
Currently Today's Max Today's Min Today's Average
Temperature 43.0°F6.1°C 44.1°F6.7°C 42.3°F5.7°C 43.3°F6.3°C
Dew Point 40.3°F4.6°C 40.7°F4.8°C 38.6°F3.7°C 40.0°F4.4°C
Winds 2.2 mph NW3.5 kmh NW 3.0 mph WSW4.8 kmh WSW - 1.9 mph 3.1 kmh
Wind Gusts 3.1 mph5.0 kmh 3.8 mph6.1 kmh - -
Humidity 90% 90% 86% 88%
Pressure 30.25 in1024.4 mb 30.25 in1024.4 mb 30.22 in1023.4 mb -
Hour Temp Dew Point Humidity Winds Wind Gusts Pressure Precip Precip Rate Daily Precip Total
03:10 AM 43.0°F6.1°C 40.3°F4.6°C 90% 2.2 mph NW3.5 kmh NW 3.1 mph5.0 kmh 30.25 in1024.4 mb 0.00 in0.0 mm 0.00 in0.0 mm 0.00 in0.0 mm
03:05 AM 43.0°F6.1°C 40.0°F4.4°C 89% 1.8 mph WNW2.9 kmh WNW 3.1 mph5.0 kmh 30.25 in1024.4 mb 0.00 in0.0 mm 0.00 in0.0 mm 0.00 in0.0 mm
03:00 AM 43.2°F6.2°C 40.1°F4.5°C 89% 1.0 mph W1.6 kmh W 1.6 mph2.6 kmh 30.25 in1024.4 mb 0.00 in0.0 mm 0.00 in0.0 mm 0.00 in0.0 mm
02:55 AM 43.3°F6.3°C 40.3°F4.6°C 89% 0.9 mph W1.4 kmh W 2.2 mph3.5 kmh 30.25 in1024.4 mb 0.00 in0.0 mm 0.00 in0.0 mm 0.00 in0.0 mm
02:50 AM 43.5°F6.4°C 40.5°F4.7°C 89% 1.6 mph W2.6 kmh W 2.2 mph3.5 kmh 30.25 in1024.4 mb 0.00 in0.0 mm 0.00 in0.0 mm 0.00 in0.0 mm
02:45 AM 43.3°F6.3°C 40.3°F4.6°C 89% 2.0 mph W3.2 kmh W 3.8 mph6.1 kmh 30.24 in1024.0 mb 0.00 in0.0 mm 0.00 in0.0 mm 0.00 in0.0 mm
02:40 AM 43.5°F6.4°C 40.5°F4.7°C 89% 2.1 mph W3.4 kmh W 3.8 mph6.1 kmh 30.25 in1024.4 mb 0.00 in0.0 mm 0.00 in0.0 mm 0.00 in0.0 mm
02:35 AM 43.7°F6.5°C 40.4°F4.7°C 88% 1.9 mph W3.1 kmh W 2.2 mph3.5 kmh 30.24 in1024.0 mb 0.00 in0.0 mm 0.00 in0.0 mm 0.00 in0.0 mm
02:30 AM 43.7°F6.5°C 40.4°F4.7°C 88% 2.0 mph W3.2 kmh W 2.2 mph3.5 kmh 30.24 in1024.0 mb 0.00 in0.0 mm 0.00 in0.0 mm 0.00 in0.0 mm
02:25 AM 43.7°F6.5°C 40.4°F4.7°C 88% 2.2 mph W3.5 kmh W 3.1 mph5.0 kmh 30.24 in1024.0 mb 0.00 in0.0 mm 0.00 in0.0 mm 0.00 in0.0 mm
02:20 AM 43.9°F6.6°C 40.6°F4.8°C 88% 2.4 mph W3.9 kmh W 3.8 mph6.1 kmh 30.24 in1024.0 mb 0.00 in0.0 mm 0.00 in0.0 mm 0.00 in0.0 mm
02:15 AM 43.9°F6.6°C 40.6°F4.8°C 88% 2.6 mph W4.2 kmh W 3.8 mph6.1 kmh 30.23 in1023.7 mb 0.00 in0.0 mm 0.00 in0.0 mm 0.00 in0.0 mm
02:10 AM 43.9°F6.6°C 40.6°F4.8°C 88% 2.2 mph W3.5 kmh W 3.1 mph5.0 kmh 30.23 in1023.7 mb 0.00 in0.0 mm 0.00 in0.0 mm 0.00 in0.0 mm
02:05 AM 44.1°F6.7°C 40.7°F4.8°C 88% 1.9 mph W3.1 kmh W 2.2 mph3.5 kmh 30.23 in1023.7 mb 0.00 in0.0 mm 0.00 in0.0 mm 0.00 in0.0 mm
02:00 AM 43.9°F6.6°C 40.6°F4.8°C 88% 2.1 mph WNW3.4 kmh WNW 3.1 mph5.0 kmh 30.23 in1023.7 mb 0.00 in0.0 mm 0.00 in0.0 mm 0.00 in0.0 mm
01:55 AM 43.9°F6.6°C 40.6°F4.8°C 88% 1.9 mph NW3.1 kmh NW 3.1 mph5.0 kmh 30.24 in1024.0 mb 0.00 in0.0 mm 0.00 in0.0 mm 0.00 in0.0 mm
01:50 AM 43.9°F6.6°C 40.6°F4.8°C 88% 1.5 mph W2.4 kmh W 2.2 mph3.5 kmh 30.23 in1023.7 mb 0.00 in0.0 mm 0.00 in0.0 mm 0.00 in0.0 mm
01:45 AM 43.9°F6.6°C 40.6°F4.8°C 88% 2.0 mph WSW3.2 kmh WSW 3.1 mph5.0 kmh 30.24 in1024.0 mb 0.00 in0.0 mm 0.00 in0.0 mm 0.00 in0.0 mm
01:40 AM 43.7°F6.5°C 40.4°F4.7°C 88% 2.8 mph W4.5 kmh W 3.8 mph6.1 kmh 30.24 in1024.0 mb 0.00 in0.0 mm 0.00 in0.0 mm 0.00 in0.0 mm
01:35 AM 43.7°F6.5°C 40.4°F4.7°C 88% 3.0 mph W4.8 kmh W 3.8 mph6.1 kmh 30.24 in1024.0 mb 0.00 in0.0 mm 0.00 in0.0 mm 0.00 in0.0 mm
01:30 AM 43.5°F6.4°C 40.2°F4.6°C 88% 2.4 mph W3.9 kmh W 3.8 mph6.1 kmh 30.24 in1024.0 mb 0.00 in0.0 mm 0.00 in0.0 mm 0.00 in0.0 mm
01:25 AM 43.5°F6.4°C 40.2°F4.6°C 88% 1.1 mph WSW1.8 kmh WSW 2.2 mph3.5 kmh 30.23 in1023.7 mb 0.00 in0.0 mm 0.00 in0.0 mm 0.00 in0.0 mm
01:20 AM 43.5°F6.4°C 40.2°F4.6°C 88% 0.7 mph SSW1.1 kmh SSW 2.2 mph3.5 kmh 30.23 in1023.7 mb 0.00 in0.0 mm 0.00 in0.0 mm 0.00 in0.0 mm
01:15 AM 43.5°F6.4°C 40.2°F4.6°C 88% 1.1 mph SSW1.8 kmh SSW 2.2 mph3.5 kmh 30.23 in1023.7 mb 0.00 in0.0 mm 0.00 in0.0 mm 0.00 in0.0 mm
01:10 AM 43.7°F6.5°C 40.4°F4.7°C 88% 1.3 mph SW2.1 kmh SW 3.1 mph5.0 kmh 30.23 in1023.7 mb 0.00 in0.0 mm 0.00 in0.0 mm 0.00 in0.0 mm
01:05 AM 43.5°F6.4°C 40.2°F4.6°C 88% 1.8 mph WSW2.9 kmh WSW 3.1 mph5.0 kmh 30.23 in1023.7 mb 0.00 in0.0 mm 0.00 in0.0 mm 0.00 in0.0 mm
01:00 AM 43.5°F6.4°C 40.2°F4.6°C 88% 2.0 mph W3.2 kmh W 2.2 mph3.5 kmh 30.23 in1023.7 mb 0.00 in0.0 mm 0.00 in0.0 mm 0.00 in0.0 mm
12:55 AM 43.2°F6.2°C 39.9°F4.4°C 88% 2.2 mph W3.5 kmh W 3.1 mph5.0 kmh 30.22 in1023.4 mb 0.00 in0.0 mm 0.00 in0.0 mm 0.00 in0.0 mm
12:50 AM 43.0°F6.1°C 39.7°F4.3°C 88% 2.7 mph W4.3 kmh W 3.8 mph6.1 kmh 30.22 in1023.4 mb 0.00 in0.0 mm 0.00 in0.0 mm 0.00 in0.0 mm
12:45 AM 42.8°F6.0°C 39.5°F4.2°C 88% 3.0 mph WSW4.8 kmh WSW 3.8 mph6.1 kmh 30.23 in1023.7 mb 0.00 in0.0 mm 0.00 in0.0 mm 0.00 in0.0 mm
12:40 AM 42.6°F5.9°C 39.3°F4.1°C 88% 2.8 mph W4.5 kmh W 3.8 mph6.1 kmh 30.22 in1023.4 mb 0.00 in0.0 mm 0.00 in0.0 mm 0.00 in0.0 mm
12:35 AM 42.4°F5.8°C 39.1°F3.9°C 88% 1.8 mph WSW2.9 kmh WSW 3.8 mph6.1 kmh 30.22 in1023.4 mb 0.00 in0.0 mm 0.00 in0.0 mm 0.00 in0.0 mm
12:30 AM 42.8°F6.0°C 39.5°F4.2°C 88% 1.4 mph SW2.3 kmh SW 2.2 mph3.5 kmh 30.22 in1023.4 mb 0.00 in0.0 mm 0.00 in0.0 mm 0.00 in0.0 mm
12:25 AM 42.4°F5.8°C 39.1°F3.9°C 88% 2.1 mph WSW3.4 kmh WSW 3.1 mph5.0 kmh 30.22 in1023.4 mb 0.00 in0.0 mm 0.00 in0.0 mm 0.00 in0.0 mm
12:20 AM 42.3°F5.7°C 39.0°F3.9°C 88% 2.1 mph WSW3.4 kmh WSW 3.1 mph5.0 kmh 30.22 in1023.4 mb 0.00 in0.0 mm 0.00 in0.0 mm 0.00 in0.0 mm
12:15 AM 42.3°F5.7°C 38.7°F3.7°C 87% 1.6 mph WSW2.6 kmh WSW 2.2 mph3.5 kmh 30.22 in1023.4 mb 0.00 in0.0 mm 0.00 in0.0 mm 0.00 in0.0 mm
12:10 AM 42.4°F5.8°C 38.6°F3.7°C 86% 0.9 mph SW1.4 kmh SW 2.2 mph3.5 kmh 30.22 in1023.4 mb 0.00 in0.0 mm 0.00 in0.0 mm 0.00 in0.0 mm
12:05 AM 42.8°F6.0°C 38.9°F3.8°C 86% 0.3 mph SW0.5 kmh SW 1.6 mph2.6 kmh 30.22 in1023.4 mb 0.00 in0.0 mm 0.00 in0.0 mm 0.00 in0.0 mm
12:00 AM 43.0°F6.1°C 39.1°F3.9°C 86% 0.8 mph SW1.3 kmh SW 2.2 mph3.5 kmh 30.22 in1023.4 mb 0.00 in0.0 mm 0.00 in0.0 mm 0.00 in0.0 mm